Time;durP1;ratioP1;P1;durP2;ratioP2;P2;SDS_P1;SDS_P2;PMS_P1;PMS_P2;Temp;Humidity;BMP_temperature;BMP_pressure;BME280_temperature;BME280_humidity;BME280_pressure;Samples;Min_cycle;Max_cycle;Signal;HPM_P1;HPM_P2
2023/09/01 00:01:53;;;;;;;18.90;9.35;;;;;;;16.15;71.27;99873.66;4967926;28;20210;-68
2023/09/01 00:04:37;;;;;;;10.77;8.15;;;;;;;16.08;71.52;99873.00;4961544;28;20043;-69
2023/09/01 00:07:03;;;;;;;13.38;9.50;;;;;;;16.23;71.32;99895.31;4952068;28;20057;-70
2023/09/01 00:09:29;;;;;;;12.55;8.90;;;;;;;16.23;71.55;99892.69;4951728;28;20039;-68
2023/09/01 00:11:55;;;;;;;12.60;9.23;;;;;;;16.26;71.76;99901.31;4969828;28;20138;-70
2023/09/01 00:14:21;;;;;;;14.00;9.55;;;;;;;16.26;71.66;99910.97;4969196;28;20034;-69
2023/09/01 00:16:47;;;;;;;17.50;9.75;;;;;;;16.13;71.93;99894.72;4968139;28;20088;-70
2023/09/01 00:19:13;;;;;;;13.20;9.93;;;;;;;16.14;71.96;99892.94;4968898;28;20042;-68
2023/09/01 00:21:39;;;;;;;15.95;9.45;;;;;;;16.13;71.89;99888.59;4936253;28;20256;-70
2023/09/01 00:24:06;;;;;;;13.40;8.88;;;;;;;16.14;72.18;99901.69;4983291;28;20070;-66
2023/09/01 00:26:35;;;;;;;15.38;9.02;;;;;;;16.07;72.03;99892.28;4952584;28;20434;-68
2023/09/01 00:29:01;;;;;;;15.10;8.60;;;;;;;16.02;72.18;99891.53;4951903;28;20556;-69
2023/09/01 00:31:27;;;;;;;13.27;9.32;;;;;;;16.06;72.12;99896.69;4981649;28;20509;-69
2023/09/01 00:33:56;;;;;;;15.85;9.07;;;;;;;15.98;72.32;99884.69;4969255;28;20053;-69
2023/09/01 00:36:22;;;;;;;15.95;8.95;;;;;;;16.06;72.55;99893.19;4967994;28;20681;-68
2023/09/01 00:38:49;;;;;;;14.30;9.80;;;;;;;15.90;72.52;99874.41;4960286;28;20050;-70
2023/09/01 00:41:15;;;;;;;13.55;9.70;;;;;;;15.97;72.54;99894.31;4962496;28;20525;-69
2023/09/01 00:43:41;;;;;;;14.45;9.32;;;;;;;15.99;72.43;99899.53;4951430;28;20043;-68
2023/09/01 00:46:07;;;;;;;15.75;9.52;;;;;;;15.96;72.28;99903.09;4960846;28;20133;-68
2023/09/01 00:48:33;;;;;;;18.63;10.13;;;;;;;15.99;72.65;99896.91;4978865;28;20130;-66
2023/09/01 00:50:59;;;;;;;13.48;9.27;;;;;;;15.85;72.74;99878.91;4967174;28;20124;-69
2023/09/01 00:53:26;;;;;;;15.13;10.45;;;;;;;15.98;72.79;99882.06;4967644;28;20031;-68
2023/09/01 00:55:55;;;;;;;16.35;9.73;;;;;;;15.94;72.78;99884.78;4967624;28;20615;-70
2023/09/01 00:58:21;;;;;;;14.65;9.52;;;;;;;15.96;72.95;99893.47;4968915;28;20042;-68
2023/09/01 01:00:47;;;;;;;20.23;10.32;;;;;;;15.95;72.56;99888.25;4951326;28;20600;-69
2023/09/01 01:03:14;;;;;;;13.55;9.68;;;;;;;15.84;72.62;99872.78;4979391;28;20489;-69
2023/09/01 01:06:15;;;;;;;19.80;11.50;;;;;;;15.89;72.62;99891.09;4967711;28;20049;-69
2023/09/01 01:09:08;;;;;;;18.13;10.75;;;;;;;15.85;72.87;99894.66;4983449;28;20314;-69
2023/09/01 01:11:56;;;;;;;19.05;11.15;;;;;;;15.80;72.68;99889.53;4964108;28;20046;-68
2023/09/01 01:14:26;;;;;;;17.60;11.18;;;;;;;15.73;73.08;99880.97;4971309;28;20524;-68
2023/09/01 01:16:52;;;;;;;20.38;11.55;;;;;;;15.63;73.11;99864.66;4972937;28;20038;-66
2023/09/01 01:19:32;;;;;;;17.98;12.80;;;;;;;15.77;73.18;99882.63;4964057;28;20547;-68
2023/09/01 01:22:00;;;;;;;18.17;13.07;;;;;;;15.69;73.43;99876.72;4971494;28;20089;-68
2023/09/01 01:24:27;;;;;;;21.55;12.48;;;;;;;15.73;73.24;99886.22;4948219;28;20039;-69
2023/09/01 01:26:53;;;;;;;21.90;12.02;;;;;;;15.73;73.33;99890.63;4970950;28;20042;-69
2023/09/01 01:29:19;;;;;;;21.77;13.98;;;;;;;15.69;73.34;99878.50;4955227;28;20117;-70
2023/09/01 01:31:45;;;;;;;17.65;11.27;;;;;;;15.73;73.59;99869.66;4972259;28;20057;-67
2023/09/01 01:34:24;;;;;;;20.20;11.55;;;;;;;15.76;73.56;99886.16;4986702;28;20230;-69
2023/09/01 01:37:05;;;;;;;17.15;11.10;;;;;;;15.74;73.37;99885.31;4955058;28;20038;-70
2023/09/01 01:39:33;;;;;;;22.17;11.80;;;;;;;15.74;73.47;99874.00;4971263;28;20042;-69
2023/09/01 01:42:05;;;;;;;21.95;12.30;;;;;;;15.70;73.30;99867.09;4987456;28;20046;-68
2023/09/01 01:44:36;;;;;;;20.88;13.20;;;;;;;15.57;73.29;99858.72;4971432;28;20043;-69
2023/09/01 01:47:04;;;;;;;20.65;13.70;;;;;;;15.51;73.30;99855.38;4969582;28;20039;-69
2023/09/01 01:49:30;;;;;;;20.27;13.07;;;;;;;15.57;73.15;99877.94;4965602;28;20491;-69
2023/09/01 01:51:58;;;;;;;23.67;13.75;;;;;;;15.57;73.47;99875.31;4970400;28;20043;-67
2023/09/01 01:54:24;;;;;;;20.15;13.40;;;;;;;15.59;73.53;99883.16;4962164;28;20121;-68
2023/09/01 01:56:50;;;;;;;21.55;14.27;;;;;;;15.56;73.59;99878.84;4970495;28;20043;-67
2023/09/01 01:59:16;;;;;;;19.45;12.85;;;;;;;15.47;73.83;99868.63;4962387;28;20046;-68
2023/09/01 02:01:42;;;;;;;18.52;11.90;;;;;;;15.62;74.08;99894.41;4970509;28;20137;-68
2023/09/01 02:04:08;;;;;;;20.63;12.95;;;;;;;15.47;73.50;99864.22;4969945;28;20046;-68
2023/09/01 02:06:34;;;;;;;19.92;13.10;;;;;;;15.52;73.84;99878.06;4971564;28;20050;-68
2023/09/01 02:09:00;;;;;;;20.92;12.77;;;;;;;15.57;73.79;99895.44;4953234;28;20038;-69
2023/09/01 02:11:27;;;;;;;18.67;13.05;;;;;;;15.49;73.59;99891.25;4977921;28;20564;-69
2023/09/01 02:13:53;;;;;;;20.75;12.65;;;;;;;15.31;73.47;99861.19;4981602;28;20090;-70
2023/09/01 02:16:18;;;;;;;19.02;12.82;;;;;;;15.32;73.94;99877.75;4969989;28;20062;-68
2023/09/01 02:18:44;;;;;;;20.70;13.23;;;;;;;15.33;74.05;99864.63;4969531;28;20078;-66
2023/09/01 02:21:19;;;;;;;19.75;12.73;;;;;;;15.31;73.71;99873.41;4953703;28;20518;-68
2023/09/01 02:23:44;;;;;;;20.95;11.75;;;;;;;15.40;74.18;99885.41;4985638;28;20145;-68
2023/09/01 02:26:19;;;;;;;19.75;12.43;;;;;;;15.20;74.19;99848.38;4971102;28;20144;-68
2023/09/01 02:28:46;;;;;;;19.83;12.45;;;;;;;15.34;74.27;99871.56;4984614;28;20122;-67
2023/09/01 02:31:12;;;;;;;25.23;12.32;;;;;;;15.42;73.70;99889.72;4969750;28;20041;-68
2023/09/01 02:33:38;;;;;;;21.95;12.98;;;;;;;15.06;74.04;99846.13;4970066;28;20505;-68
2023/09/01 02:36:30;;;;;;;21.17;12.73;;;;;;;15.31;74.26;99892.66;4984905;28;20059;-68
2023/09/01 02:38:57;;;;;;;19.83;13.65;;;;;;;15.23;74.02;99888.50;4979641;28;20098;-68
2023/09/01 02:41:23;;;;;;;17.00;12.25;;;;;;;15.29;74.68;99893.56;4969828;28;20121;-68
2023/09/01 02:43:50;;;;;;;27.17;13.80;;;;;;;15.26;74.37;99889.28;4979409;28;20129;-67
2023/09/01 02:46:16;;;;;;;21.30;12.98;;;;;;;15.26;74.70;99878.78;4970716;28;20066;-68
2023/09/01 02:48:42;;;;;;;24.33;14.88;;;;;;;15.31;74.29;99903.13;4969354;28;20585;-67
2023/09/01 02:51:08;;;;;;;23.80;14.75;;;;;;;15.14;74.24;99881.72;4984584;28;20169;-68
2023/09/01 02:53:36;;;;;;;32.25;14.82;;;;;;;15.20;74.43;99892.06;4985730;28;20043;-69
2023/09/01 02:56:02;;;;;;;25.65;15.13;;;;;;;15.23;74.82;99894.59;4953476;28;20073;-70
2023/09/01 02:58:29;;;;;;;23.50;13.90;;;;;;;15.26;74.45;99904.13;4968704;28;20528;-68
2023/09/01 03:00:56;;;;;;;19.50;13.32;;;;;;;15.22;74.98;99895.50;4953132;28;20042;-69
2023/09/01 03:03:23;;;;;;;20.33;14.50;;;;;;;15.26;74.61;99906.75;4969100;28;20082;-69
2023/09/01 03:05:50;;;;;;;24.33;14.52;;;;;;;15.14;74.71;99892.22;4961439;28;20137;-69
2023/09/01 03:08:22;;;;;;;22.58;13.07;;;;;;;15.33;74.98;99903.97;4984307;28;20035;-69
2023/09/01 03:10:49;;;;;;;20.23;13.25;;;;;;;15.47;74.97;99907.94;4930790;28;20038;-77
2023/09/01 03:13:17;;;;;;;25.77;12.93;;;;;;;15.25;74.88;99852.59;4976511;28;20043;-78
2023/09/01 03:15:43;;;;;;;20.55;13.10;;;;;;;15.72;74.54;99915.97;4976423;28;20038;-78
2023/09/01 03:18:10;;;;;;;23.67;13.93;;;;;;;15.69;74.67;99889.84;4971219;28;20094;-78
2023/09/01 03:20:38;;;;;;;21.65;13.27;;;;;;;15.50;74.63;99851.03;4961661;28;20038;-83
2023/09/01 03:23:04;;;;;;;22.92;13.50;;;;;;;15.74;73.64;99889.72;4977923;28;20046;-85
2023/09/01 03:25:32;;;;;;;21.63;13.07;;;;;;;15.72;74.00;99889.75;4979937;28;20074;-85
2023/09/01 03:27:58;;;;;;;21.85;12.48;;;;;;;15.76;73.81;99901.03;4980016;28;20133;-86
2023/09/01 03:30:24;;;;;;;26.15;12.25;;;;;;;15.70;73.79;99890.72;4978876;28;20053;-84
2023/09/01 03:32:52;;;;;;;16.33;11.93;;;;;;;15.75;73.86;99901.94;4959257;28;20508;-81
2023/09/01 03:35:19;;;;;;;24.17;12.70;;;;;;;15.82;73.33;99900.84;4956697;28;20429;-78
2023/09/01 03:37:45;;;;;;;18.60;12.02;;;;;;;16.00;74.01;99912.59;4966436;28;20118;-80
2023/09/01 03:40:11;;;;;;;18.27;11.80;;;;;;;15.79;73.65;99879.94;4972064;28;20430;-79
2023/09/01 03:42:39;;;;;;;18.70;12.15;;;;;;;16.16;73.78;99925.25;4969072;28;20046;-78
2023/09/01 03:45:06;;;;;;;16.85;11.15;;;;;;;16.06;73.42;99903.69;4957331;28;20055;-75
2023/09/01 03:47:32;;;;;;;15.27;10.55;;;;;;;16.24;73.56;99924.13;4962797;28;20042;-77
2023/09/01 03:49:58;;;;;;;19.92;10.98;;;;;;;16.03;73.38;99872.28;4970412;28;20043;-77
2023/09/01 03:52:24;;;;;;;15.85;10.38;;;;;;;16.37;73.50;99908.00;4971115;28;20054;-77
2023/09/01 03:54:50;;;;;;;18.25;10.00;;;;;;;16.43;73.22;99873.69;4972904;28;20050;-79
2023/09/01 03:57:17;;;;;;;18.45;10.48;;;;;;;16.71;72.84;99904.28;4977931;28;20047;-78
2023/09/01 03:59:43;;;;;;;16.20;10.25;;;;;;;16.86;72.59;99911.69;4959335;28;20129;-78
2023/09/01 04:02:09;;;;;;;14.85;9.75;;;;;;;17.05;72.54;99923.38;4943696;28;20038;-78
2023/09/01 04:04:36;;;;;;;19.15;9.90;;;;;;;17.13;72.37;99908.19;4964817;28;20456;-77
2023/09/01 04:07:03;;;;;;;20.35;9.68;;;;;;;17.34;71.80;99926.78;4991850;28;20107;-79
2023/09/01 04:09:29;;;;;;;18.02;9.55;;;;;;;17.53;72.09;99914.69;4970767;28;20057;-77
2023/09/01 04:12:37;;;;;;;12.10;8.43;;;;;;;17.88;71.56;99930.09;4979926;28;20061;-79
2023/09/01 04:15:06;;;;;;;15.75;9.00;;;;;;;18.00;70.67;99915.66;4964428;28;20177;-77
2023/09/01 04:17:32;;;;;;;13.90;8.48;;;;;;;18.30;70.84;99926.78;4978578;28;20050;-78
2023/09/01 04:19:59;;;;;;;13.98;8.70;;;;;;;18.22;69.99;99878.81;4986085;28;20112;-79
2023/09/01 04:22:26;;;;;;;16.02;9.45;;;;;;;18.26;69.01;99853.22;4984231;28;20049;-77
2023/09/01 04:24:52;;;;;;;15.40;8.70;;;;;;;18.82;68.64;99923.00;4965046;28;20519;-78
2023/09/01 04:27:21;;;;;;;13.43;7.97;;;;;;;18.91;67.90;99919.09;4964152;28;20381;-78
2023/09/01 04:29:47;;;;;;;14.98;8.23;;;;;;;18.94;67.93;99898.72;4977512;28;20446;-78
2023/09/01 04:32:13;;;;;;;16.48;8.02;;;;;;;19.22;67.20;99902.00;4996726;28;20718;-78
2023/09/01 04:34:39;;;;;;;12.82;8.40;;;;;;;19.54;66.81;99924.34;4999443;28;20054;-78
2023/09/01 04:37:05;;;;;;;18.02;7.82;;;;;;;19.62;65.66;99915.22;4984756;28;20045;-78
2023/09/01 04:39:31;;;;;;;12.00;7.22;;;;;;;19.48;65.71;99879.78;4966567;28;20156;-80
2023/09/01 04:41:58;;;;;;;12.32;8.50;;;;;;;19.83;64.96;99914.25;4966108;28;20034;-76
2023/09/01 04:44:24;;;;;;;12.35;7.55;;;;;;;19.88;64.58;99889.47;4984438;28;20089;-79
2023/09/01 04:46:50;;;;;;;11.05;7.70;;;;;;;20.24;64.43;99902.75;4987245;28;20046;-77
2023/09/01 04:49:17;;;;;;;12.68;7.88;;;;;;;20.24;63.67;99875.44;4969575;28;20035;-79
2023/09/01 04:51:44;;;;;;;12.75;7.93;;;;;;;20.60;62.87;99883.38;4969055;28;20038;-76
2023/09/01 04:54:10;;;;;;;11.02;7.40;;;;;;;20.66;62.20;99873.44;4981977;28;20049;-77
2023/09/01 04:56:36;;;;;;;12.15;7.15;;;;;;;20.97;62.36;99883.34;4969351;28;20053;-79
2023/09/01 04:59:02;;;;;;;15.85;7.97;;;;;;;21.27;61.49;99888.00;4980932;28;20038;-79
2023/09/01 05:01:29;;;;;;;14.98;7.22;;;;;;;21.18;61.30;99864.66;4970849;28;20038;-78
2023/09/01 05:03:55;;;;;;;12.05;6.95;;;;;;;21.33;60.64;99837.38;5002937;28;20082;-77
2023/09/01 05:06:21;;;;;;;9.70;7.22;;;;;;;21.87;59.80;99889.28;4966196;28;20046;-76
2023/09/01 05:08:47;;;;;;;14.55;6.72;;;;;;;22.43;60.07;99867.66;4965884;28;20043;-76
2023/09/01 05:11:13;;;;;;;14.35;6.97;;;;;;;23.50;58.78;99876.47;4999159;28;20041;-79
2023/09/01 05:13:39;;;;;;;13.48;6.85;;;;;;;25.36;57.29;99888.38;4968565;28;20623;-78
2023/09/01 05:16:07;;;;;;;11.95;6.40;;;;;;;26.83;55.20;99869.00;4975388;28;20090;-79
2023/09/01 05:18:33;;;;;;;7.50;6.15;;;;;;;27.64;49.54;99888.56;4968539;28;20569;-77
2023/09/01 05:20:59;;;;;;;10.80;6.30;;;;;;;28.44;48.05;99882.25;4981590;28;20046;-76
2023/09/01 05:23:31;;;;;;;9.25;5.95;;;;;;;29.58;47.12;99847.63;4988890;28;20141;-77
2023/09/01 05:25:57;;;;;;;7.53;6.07;;;;;;;30.79;44.29;99877.06;4998718;28;20381;-77
2023/09/01 05:28:23;;;;;;;9.23;5.97;;;;;;;31.97;41.74;99885.63;4983402;28;20081;-78
2023/09/01 05:30:50;;;;;;;8.75;6.07;;;;;;;32.58;39.08;99880.53;5004203;28;20046;-78
2023/09/01 05:33:16;;;;;;;9.07;5.80;;;;;;;33.54;36.21;99883.44;4984419;28;20571;-78
2023/09/01 05:35:43;;;;;;;11.70;5.28;;;;;;;34.17;35.46;99851.59;4967069;28;20050;-78
2023/09/01 05:38:09;;;;;;;10.15;5.47;;;;;;;34.89;34.00;99855.50;4986967;28;20038;-79
2023/09/01 05:40:35;;;;;;;10.13;6.40;;;;;;;35.58;32.33;99868.56;5002598;28;20038;-77
2023/09/01 05:43:01;;;;;;;11.85;5.35;;;;;;;36.17;31.47;99866.41;4996495;28;20038;-78
2023/09/01 05:45:27;;;;;;;12.65;6.38;;;;;;;36.03;30.61;99858.06;4948287;28;20042;-78
2023/09/01 05:47:56;;;;;;;9.88;5.43;;;;;;;36.55;29.68;99846.69;4951762;28;20039;-80
2023/09/01 05:50:22;;;;;;;8.60;5.93;;;;;;;36.90;29.24;99836.19;4980035;28;20501;-76
2023/09/01 05:52:48;;;;;;;8.77;5.47;;;;;;;38.12;28.21;99878.34;5001239;28;20088;-76
2023/09/01 05:55:14;;;;;;;10.93;5.88;;;;;;;38.35;26.66;99852.88;4957531;28;20047;-78
2023/09/01 05:57:41;;;;;;;8.57;5.40;;;;;;;38.33;26.21;99843.25;4979983;28;20442;-77
2023/09/01 06:00:07;;;;;;;8.20;5.13;;;;;;;38.77;25.33;99880.22;4986448;28;20087;-77
2023/09/01 06:02:38;;;;;;;5.63;4.78;;;;;;;39.38;25.00;99878.78;4980578;28;20192;-76
2023/09/01 06:05:05;;;;;;;9.35;5.65;;;;;;;39.92;22.87;99877.16;4984692;28;20073;-79
2023/09/01 06:07:31;;;;;;;11.10;4.78;;;;;;;39.96;24.12;99871.31;5003150;28;20043;-77
2023/09/01 06:09:58;;;;;;;8.60;4.90;;;;;;;40.32;23.47;99859.22;4973631;28;20042;-78
2023/09/01 06:12:24;;;;;;;8.85;4.80;;;;;;;40.79;22.98;99871.00;4949207;28;20129;-78
2023/09/01 06:14:53;;;;;;;7.35;4.60;;;;;;;40.79;22.52;99868.28;4979964;28;20429;-78
2023/09/01 06:17:20;;;;;;;11.63;4.60;;;;;;;41.79;21.83;99862.81;4983204;28;20453;-79
2023/09/01 06:19:46;;;;;;;13.48;5.40;;;;;;;42.17;20.63;99856.50;4983320;28;20043;-80
2023/09/01 06:22:13;;;;;;;8.63;4.72;;;;;;;43.12;20.08;99872.97;4983000;28;20046;-79
2023/09/01 06:24:39;;;;;;;9.77;5.15;;;;;;;42.37;19.14;99840.00;4991888;28;20047;-80
2023/09/01 06:27:05;;;;;;;11.93;4.82;;;;;;;42.95;19.45;99873.56;5005013;28;20042;-80
2023/09/01 06:29:32;;;;;;;10.18;4.75;;;;;;;43.95;18.81;99851.53;4968894;28;20553;-86
2023/09/01 06:31:58;;;;;;;7.28;4.80;;;;;;;44.05;18.72;99854.56;4988209;28;20130;-84
2023/09/01 06:34:24;;;;;;;9.80;4.75;;;;;;;44.72;17.94;99863.63;4953560;28;20055;-79
2023/09/01 06:36:53;;;;;;;9.88;4.97;;;;;;;45.29;17.84;99873.16;4983931;28;20054;-76
2023/09/01 06:39:19;;;;;;;7.63;4.53;;;;;;;44.65;17.64;99802.56;4986256;28;20043;-80
2023/09/01 06:41:46;;;;;;;7.38;5.15;;;;;;;44.55;17.23;99811.41;4970875;28;20806;-83
2023/09/01 06:44:12;;;;;;;8.65;4.97;;;;;;;45.48;16.79;99859.25;4987122;28;20153;-80
2023/09/01 06:46:38;;;;;;;8.05;4.72;;;;;;;45.94;16.30;99846.44;4985340;28;20043;-83
2023/09/01 06:49:04;;;;;;;10.48;4.47;;;;;;;46.75;15.84;99877.50;4970505;28;20596;-80
2023/09/01 06:51:31;;;;;;;7.22;4.35;;;;;;;47.30;15.07;99883.25;4986236;28;20509;-81
2023/09/01 06:53:56;;;;;;;8.55;5.05;;;;;;;47.84;14.70;99865.16;5003845;28;20053;-82
2023/09/01 06:56:23;;;;;;;9.23;5.03;;;;;;;47.67;14.08;99844.06;4985932;28;20410;-81
2023/09/01 06:58:49;;;;;;;8.32;4.90;;;;;;;46.44;14.75;99825.63;4981229;28;20034;-77
2023/09/01 07:01:15;;;;;;;11.45;5.22;;;;;;;46.66;14.92;99866.09;4979648;28;20049;-77
2023/09/01 07:03:42;;;;;;;9.20;5.55;;;;;;;47.03;14.18;99838.00;4997787;28;20093;-80
2023/09/01 07:06:08;;;;;;;7.43;4.95;;;;;;;47.28;14.29;99833.09;4966474;28;20405;-79
2023/09/01 07:08:34;;;;;;;7.35;5.25;;;;;;;47.47;14.06;99867.47;4979020;28;20034;-80
2023/09/01 07:11:04;;;;;;;5.78;4.90;;;;;;;47.23;13.81;99861.41;4982494;28;20133;-78
2023/09/01 07:13:31;;;;;;;6.50;4.70;;;;;;;46.68;14.01;99866.66;4978819;28;20081;-76
2023/09/01 07:15:57;;;;;;;7.95;5.38;;;;;;;46.34;14.06;99869.41;4991461;28;20046;-83
2023/09/01 07:18:25;;;;;;;7.85;4.57;;;;;;;46.47;14.68;99865.50;5002867;28;20060;-83
2023/09/01 07:20:51;;;;;;;11.02;4.78;;;;;;;46.73;14.54;99843.91;5003462;28;20579;-83
2023/09/01 07:23:18;;;;;;;15.70;5.20;;;;;;;47.76;13.60;99842.47;4989894;28;20501;-88
2023/09/01 07:25:44;;;;;;;7.50;4.55;;;;;;;48.44;13.29;99823.78;4975447;28;20511;-75
2023/09/01 07:28:12;;;;;;;8.88;4.95;;;;;;;48.14;12.75;99856.34;4968340;28;20046;-84
2023/09/01 07:30:38;;;;;;;11.07;4.32;;;;;;;46.22;14.06;99852.16;4963314;28;20129;-86
2023/09/01 07:33:07;;;;;;;5.88;4.10;;;;;;;46.04;14.24;99856.78;4968656;28;20076;-82
2023/09/01 07:35:33;;;;;;;10.10;5.05;;;;;;;46.56;13.90;99853.03;4968084;28;20061;-81
2023/09/01 07:37:59;;;;;;;6.60;4.85;;;;;;;45.02;14.71;99848.13;4988383;28;20130;-78
2023/09/01 07:40:26;;;;;;;7.10;4.05;;;;;;;45.14;14.65;99862.66;4971783;28;20047;-79
2023/09/01 07:42:52;;;;;;;9.52;4.97;;;;;;;45.33;14.62;99851.56;4997494;28;20051;-77
2023/09/01 07:45:18;;;;;;;9.50;4.60;;;;;;;45.60;14.73;99860.06;4981032;28;20053;-80
2023/09/01 07:47:44;;;;;;;6.05;4.30;;;;;;;45.12;15.25;99870.31;4980037;28;20386;-76
2023/09/01 07:50:10;;;;;;;8.70;4.70;;;;;;;45.01;14.92;99868.41;4978341;28;20469;-74
2023/09/01 07:52:37;;;;;;;5.68;3.95;;;;;;;44.51;15.79;99837.63;4959319;28;20102;-74
2023/09/01 07:55:05;;;;;;;7.75;4.15;;;;;;;45.90;14.80;99844.44;4952264;28;20428;-74
2023/09/01 07:57:32;;;;;;;7.68;4.40;;;;;;;47.57;14.42;99849.44;4975061;28;20042;-73
2023/09/01 08:00:05;;;;;;;7.45;4.45;;;;;;;48.76;12.62;99845.81;4951785;28;20046;-74
2023/09/01 08:02:39;;;;;;;5.43;4.10;;;;;;;49.09;12.57;99867.81;4980138;28;20038;-74
2023/09/01 08:05:05;;;;;;;5.60;4.22;;;;;;;49.19;12.84;99842.16;4976647;28;20043;-77
2023/09/01 08:07:31;;;;;;;6.72;4.03;;;;;;;49.58;12.35;99842.59;4978694;28;20038;-76
2023/09/01 08:09:58;;;;;;;8.52;4.47;;;;;;;49.21;11.48;99871.19;4971726;28;20481;-75
2023/09/01 08:12:27;;;;;;;8.25;4.55;;;;;;;47.64;12.95;99850.06;4996226;28;20041;-74
2023/09/01 08:14:53;;;;;;;6.32;4.20;;;;;;;47.21;13.22;99877.34;4981766;28;20066;-78
2023/09/01 08:17:19;;;;;;;9.90;4.32;;;;;;;48.15;13.29;99866.28;4994009;28;20035;-75
2023/09/01 08:19:49;;;;;;;6.47;4.07;;;;;;;48.80;12.30;99832.28;4979934;28;20047;-76
2023/09/01 08:22:16;;;;;;;6.45;4.13;;;;;;;50.17;12.14;99865.38;4973330;28;20187;-73
2023/09/01 08:24:46;;;;;;;4.63;4.10;;;;;;;50.25;11.54;99836.31;4978819;28;20185;-74
2023/09/01 08:27:11;;;;;;;;;;;;;;;49.81;11.40;99859.78;4978377;28;20045;-76
2023/09/01 08:29:38;;;;;;;4.70;3.92;;;;;;;48.74;12.50;99858.22;4988240;28;19922;-74
2023/09/01 08:32:05;;;;;;;5.78;4.00;;;;;;;48.14;12.20;99820.50;4979856;28;20050;-77
2023/09/01 08:34:31;;;;;;;6.18;4.30;;;;;;;47.11;13.08;99856.00;4976552;28;20081;-75
2023/09/01 08:36:57;;;;;;;5.72;3.65;;;;;;;46.87;13.10;99819.66;4977445;28;20038;-75
2023/09/01 08:39:24;;;;;;;4.20;3.45;;;;;;;46.83;12.84;99824.81;4979427;28;20040;-75
2023/09/01 08:41:53;;;;;;;4.65;3.92;;;;;;;45.96;13.02;99851.69;4996886;28;20081;-75
2023/09/01 08:44:24;;;;;;;3.97;3.60;;;;;;;45.42;14.00;99839.09;4977129;28;20561;-73
2023/09/01 08:46:55;;;;;;;4.20;3.42;;;;;;;46.29;13.70;99817.06;4953376;28;20117;-75
2023/09/01 08:49:23;;;;;;;3.95;3.55;;;;;;;46.04;13.87;99840.31;4981075;28;20150;-73
2023/09/01 08:51:53;;;;;;;4.28;3.55;;;;;;;46.52;13.22;99824.34;4964052;28;20034;-73
2023/09/01 08:54:19;;;;;;;5.05;3.80;;;;;;;47.80;12.66;99840.88;4964031;28;20459;-77
2023/09/01 08:56:45;;;;;;;4.97;3.90;;;;;;;47.80;12.76;99845.53;4963811;28;20300;-76
2023/09/01 08:59:14;;;;;;;6.67;3.80;;;;;;;47.28;12.66;99853.22;4958630;28;20038;-73
2023/09/01 09:01:40;;;;;;;4.25;3.90;;;;;;;46.44;13.55;99850.38;4966989;28;20048;-80
2023/09/01 09:04:06;;;;;;;6.57;3.85;;;;;;;46.90;13.37;99819.09;4999011;28;20046;-82
2023/09/01 09:06:35;;;;;;;7.72;4.18;;;;;;;47.49;12.77;99845.19;4969025;28;20081;-86
2023/09/01 09:09:16;;;;;;;4.25;3.70;;;;;;;47.08;13.39;99825.41;4984798;28;20185;-76
2023/09/01 09:11:58;;;;;;;7.28;3.85;;;;;;;46.87;12.82;99825.16;4983061;28;20038;-74
2023/09/01 09:14:27;;;;;;;5.43;3.97;;;;;;;48.21;12.25;99837.69;4975755;28;20050;-76
2023/09/01 09:16:54;;;;;;;5.25;3.83;;;;;;;47.97;11.83;99844.63;4976937;28;20042;-76
2023/09/01 09:19:21;;;;;;;4.53;3.75;;;;;;;47.27;12.15;99820.41;4957485;28;20046;-73
2023/09/01 09:21:47;;;;;;;4.82;3.58;;;;;;;46.61;12.81;99839.31;4975493;28;20148;-73
2023/09/01 09:24:34;;;;;;;8.80;4.05;;;;;;;46.08;12.73;99838.72;4960277;28;20066;-79
2023/09/01 09:27:02;;;;;;;7.28;3.53;;;;;;;45.59;12.44;99830.94;4961536;28;20176;-78
2023/09/01 09:29:40;;;;;;;9.02;3.45;;;;;;;45.19;12.84;99802.38;4961679;28;20046;-77
2023/09/01 09:32:20;;;;;;;5.78;3.50;;;;;;;44.79;13.60;99836.94;4987515;28;20038;-76
2023/09/01 09:35:05;;;;;;;6.18;2.90;;;;;;;44.68;14.15;99835.88;4998174;28;20074;-76
2023/09/01 09:37:35;;;;;;;8.07;3.90;;;;;;;44.56;13.74;99840.50;4981508;28;20073;-77
2023/09/01 09:40:16;;;;;;;7.10;3.60;;;;;;;44.06;14.28;99823.34;4994567;28;20039;-77
2023/09/01 09:42:44;;;;;;;4.88;3.50;;;;;;;43.92;14.37;99827.34;4978832;28;20041;-74
2023/09/01 09:45:26;;;;;;;5.93;3.72;;;;;;;42.94;14.46;99847.28;4978306;28;20046;-78
2023/09/01 09:47:55;;;;;;;5.18;3.92;;;;;;;43.12;14.26;99820.97;4980254;28;20045;-78
2023/09/01 09:50:22;;;;;;;4.20;3.75;;;;;;;43.29;14.97;99818.50;4951576;28;20046;-75
2023/09/01 09:52:50;;;;;;;6.18;3.72;;;;;;;43.25;14.91;99837.28;4962422;28;21468;-73
2023/09/01 09:55:29;;;;;;;4.70;3.30;;;;;;;43.45;14.94;99833.47;4976503;28;20120;-72
2023/09/01 09:58:07;;;;;;;5.53;3.75;;;;;;;43.91;14.58;99809.25;4970364;28;20042;-75
2023/09/01 10:00:42;;;;;;;8.13;4.43;;;;;;;44.96;13.60;99839.78;4980074;28;20051;-74
2023/09/01 10:03:09;;;;;;;5.07;3.60;;;;;;;44.05;14.04;99810.72;4976855;28;20061;-74
2023/09/01 10:05:35;;;;;;;5.97;3.70;;;;;;;43.85;14.56;99821.97;4944289;28;20046;-76
2023/09/01 10:08:04;;;;;;;6.35;3.85;;;;;;;43.23;14.00;99819.41;4993962;28;20542;-74
2023/09/01 10:10:33;;;;;;;6.78;3.75;;;;;;;42.71;14.67;99798.66;4980502;28;20042;-74
2023/09/01 10:13:07;;;;;;;15.82;12.00;;;;;;;42.48;15.27;99813.84;4972885;28;20065;-75
2023/09/01 10:15:36;;;;;;;4.53;4.03;;;;;;;42.57;15.18;99806.19;4985322;28;20046;-75
2023/09/01 10:18:04;;;;;;;;;;;;;;;42.46;15.36;99829.63;4992370;28;20045;-74
2023/09/01 10:20:50;;;;;;;5.63;4.55;;;;;;;41.27;15.73;99780.94;4978066;28;19976;-75
2023/09/01 10:23:16;;;;;;;4.25;3.60;;;;;;;41.74;15.71;99830.66;4976460;28;20053;-79
2023/09/01 10:26:12;;;;;;;4.95;3.60;;;;;;;41.31;16.06;99814.88;4981457;28;20092;-74
2023/09/01 10:29:01;;;;;;;7.75;3.78;;;;;;;41.79;15.52;99817.19;4978845;28;20065;-74
2023/09/01 10:31:28;;;;;;;6.38;4.03;;;;;;;41.94;15.86;99805.97;4984737;28;20121;-74
2023/09/01 10:34:15;;;;;;;5.88;4.00;;;;;;;42.06;15.39;99814.34;4969568;28;20667;-77
2023/09/01 10:36:43;;;;;;;4.95;3.72;;;;;;;41.89;15.79;99803.06;4993932;28;20186;-76
2023/09/01 10:39:19;;;;;;;7.57;3.65;;;;;;;41.37;15.89;99803.13;4961968;28;20131;-74
2023/09/01 10:41:50;;;;;;;4.45;3.63;;;;;;;39.87;16.76;99792.53;4945784;28;20043;-76
2023/09/01 10:44:16;;;;;;;5.75;3.80;;;;;;;38.12;17.80;99796.88;4958019;28;20070;-73
2023/09/01 10:46:42;;;;;;;9.40;3.78;;;;;;;36.69;19.15;99794.41;4960669;28;20056;-74
2023/09/01 10:49:12;;;;;;;10.85;3.75;;;;;;;35.39;20.69;99795.94;4975933;28;20535;-74
2023/09/01 10:51:40;;;;;;;3.90;3.33;;;;;;;34.84;21.45;99801.16;4976939;28;20038;-85
2023/09/01 10:54:15;;;;;;;12.07;3.95;;;;;;;34.21;22.05;99807.09;4975075;28;20072;-74
2023/09/01 10:56:59;;;;;;;3.92;3.38;;;;;;;33.43;22.59;99784.81;4982545;28;20042;-78
2023/09/01 10:59:37;;;;;;;8.35;4.18;;;;;;;33.05;23.64;99800.44;4995765;28;20105;-79
2023/09/01 11:02:34;;;;;;;8.75;3.50;;;;;;;32.51;24.20;99803.25;4982645;28;20047;-76
2023/09/01 11:05:05;;;;;;;9.18;4.30;;;;;;;32.32;24.22;99805.13;4966405;28;20452;-74
2023/09/01 11:08:10;;;;;;;5.82;3.53;;;;;;;32.07;25.08;99799.47;4989313;28;20049;-76
2023/09/01 11:10:38;;;;;;;5.85;3.38;;;;;;;31.81;25.34;99807.44;4987470;28;20104;-78
2023/09/01 11:13:16;;;;;;;4.60;3.30;;;;;;;31.05;26.97;99798.56;4990756;28;20056;-75
2023/09/01 11:15:50;;;;;;;7.85;3.30;;;;;;;30.44;26.98;99728.19;4984967;28;20125;-76
2023/09/01 11:18:19;;;;;;;7.30;3.50;;;;;;;30.70;27.27;99800.06;4971821;28;20046;-76
2023/09/01 11:20:48;;;;;;;6.72;3.90;;;;;;;30.12;27.59;99732.88;4985703;28;20035;-78
2023/09/01 11:23:22;;;;;;;6.45;3.38;;;;;;;29.61;27.77;99682.03;4973901;28;20046;-77
2023/09/01 11:25:57;;;;;;;5.63;3.50;;;;;;;29.62;27.66;99733.81;4968953;28;20041;-77
2023/09/01 11:28:26;;;;;;;8.10;3.60;;;;;;;29.52;28.09;99776.69;4988501;28;20049;-80
2023/09/01 11:31:04;;;;;;;7.13;3.50;;;;;;;29.41;28.78;99791.03;4987952;28;20074;-76
2023/09/01 11:33:36;;;;;;;4.93;3.58;;;;;;;28.89;28.93;99742.00;4989472;28;20153;-77
2023/09/01 11:36:13;;;;;;;5.13;3.25;;;;;;;28.81;28.86;99758.72;4952856;28;20048;-79